sensor_id;sensor_type;location;lat;lon;timestamp;temperature;humidity
4097;DHT22;2062;50.694;7.246;2023-09-07T00:01:13;21.60;40.30
4097;DHT22;2062;50.694;7.246;2023-09-07T00:03:40;21.60;40.50
4097;DHT22;2062;50.694;7.246;2023-09-07T00:06:07;21.60;40.50
4097;DHT22;2062;50.694;7.246;2023-09-07T00:08:34;21.60;40.50
4097;DHT22;2062;50.694;7.246;2023-09-07T00:11:04;21.50;40.50
4097;DHT22;2062;50.694;7.246;2023-09-07T00:13:30;21.50;40.70
4097;DHT22;2062;50.694;7.246;2023-09-07T00:15:59;21.50;40.60
4097;DHT22;2062;50.694;7.246;2023-09-07T00:18:27;21.50;40.90
4097;DHT22;2062;50.694;7.246;2023-09-07T00:20:54;21.50;40.70
4097;DHT22;2062;50.694;7.246;2023-09-07T00:30:05;21.50;41.40
4097;DHT22;2062;50.694;7.246;2023-09-07T00:32:35;21.40;40.90
4097;DHT22;2062;50.694;7.246;2023-09-07T00:35:05;21.40;40.90
4097;DHT22;2062;50.694;7.246;2023-09-07T00:37:32;21.40;41.00
4097;DHT22;2062;50.694;7.246;2023-09-07T00:39:59;21.40;41.00
4097;DHT22;2062;50.694;7.246;2023-09-07T00:42:25;21.40;41.00
4097;DHT22;2062;50.694;7.246;2023-09-07T00:44:53;21.50;41.30
4097;DHT22;2062;50.694;7.246;2023-09-07T00:47:19;21.40;41.10
4097;DHT22;2062;50.694;7.246;2023-09-07T00:49:46;21.40;41.40
4097;DHT22;2062;50.694;7.246;2023-09-07T00:52:14;21.30;41.30
4097;DHT22;2062;50.694;7.246;2023-09-07T00:54:42;21.30;41.50
4097;DHT22;2062;50.694;7.246;2023-09-07T00:57:09;21.30;41.30
4097;DHT22;2062;50.694;7.246;2023-09-07T00:59:36;21.20;41.20
4097;DHT22;2062;50.694;7.246;2023-09-07T01:02:03;21.20;41.20
4097;DHT22;2062;50.694;7.246;2023-09-07T01:04:31;21.20;41.70
4097;DHT22;2062;50.694;7.246;2023-09-07T01:07:02;21.10;42.00
4097;DHT22;2062;50.694;7.246;2023-09-07T01:09:32;21.20;41.90
4097;DHT22;2062;50.694;7.246;2023-09-07T01:12:01;21.20;41.80
4097;DHT22;2062;50.694;7.246;2023-09-07T01:14:28;21.10;41.70
4097;DHT22;2062;50.694;7.246;2023-09-07T01:16:55;21.10;41.90
4097;DHT22;2062;50.694;7.246;2023-09-07T01:19:22;21.00;41.80
4097;DHT22;2062;50.694;7.246;2023-09-07T01:21:50;21.00;41.90
4097;DHT22;2062;50.694;7.246;2023-09-07T01:24:17;21.10;42.50
4097;DHT22;2062;50.694;7.246;2023-09-07T01:26:44;21.00;42.90
4097;DHT22;2062;50.694;7.246;2023-09-07T01:29:14;21.00;43.20
4097;DHT22;2062;50.694;7.246;2023-09-07T01:31:42;20.90;43.60
4097;DHT22;2062;50.694;7.246;2023-09-07T01:34:09;20.80;43.80
4097;DHT22;2062;50.694;7.246;2023-09-07T01:36:36;20.80;43.60
4097;DHT22;2062;50.694;7.246;2023-09-07T01:39:05;20.70;44.00
4097;DHT22;2062;50.694;7.246;2023-09-07T01:41:32;20.70;43.90
4097;DHT22;2062;50.694;7.246;2023-09-07T01:43:59;20.60;43.20
4097;DHT22;2062;50.694;7.246;2023-09-07T01:46:26;20.60;43.40
4097;DHT22;2062;50.694;7.246;2023-09-07T01:48:53;20.60;43.40
4097;DHT22;2062;50.694;7.246;2023-09-07T01:51:20;20.50;43.10
4097;DHT22;2062;50.694;7.246;2023-09-07T01:53:47;20.50;43.00
4097;DHT22;2062;50.694;7.246;2023-09-07T01:56:16;20.40;43.00
4097;DHT22;2062;50.694;7.246;2023-09-07T01:58:43;20.40;43.10
4097;DHT22;2062;50.694;7.246;2023-09-07T02:01:20;20.40;43.00
4097;DHT22;2062;50.694;7.246;2023-09-07T02:03:47;20.30;43.20
4097;DHT22;2062;50.694;7.246;2023-09-07T02:06:14;20.30;43.80
4097;DHT22;2062;50.694;7.246;2023-09-07T02:08:41;20.30;44.00
4097;DHT22;2062;50.694;7.246;2023-09-07T02:11:08;20.30;45.50
4097;DHT22;2062;50.694;7.246;2023-09-07T02:13:36;20.20;45.60
4097;DHT22;2062;50.694;7.246;2023-09-07T02:16:03;20.10;45.10
4097;DHT22;2062;50.694;7.246;2023-09-07T02:18:31;20.00;44.40
4097;DHT22;2062;50.694;7.246;2023-09-07T02:21:01;19.90;44.80
4097;DHT22;2062;50.694;7.246;2023-09-07T02:23:29;19.80;45.10
4097;DHT22;2062;50.694;7.246;2023-09-07T02:25:56;19.70;45.90
4097;DHT22;2062;50.694;7.246;2023-09-07T02:28:23;19.80;46.10
4097;DHT22;2062;50.694;7.246;2023-09-07T02:30:51;19.70;46.50
4097;DHT22;2062;50.694;7.246;2023-09-07T02:33:18;19.70;45.70
4097;DHT22;2062;50.694;7.246;2023-09-07T02:35:47;19.70;46.00
4097;DHT22;2062;50.694;7.246;2023-09-07T02:38:14;19.70;46.40
4097;DHT22;2062;50.694;7.246;2023-09-07T02:40:42;19.70;46.20
4097;DHT22;2062;50.694;7.246;2023-09-07T02:43:09;19.70;46.40
4097;DHT22;2062;50.694;7.246;2023-09-07T02:45:35;19.70;45.90
4097;DHT22;2062;50.694;7.246;2023-09-07T02:48:04;19.70;45.90
4097;DHT22;2062;50.694;7.246;2023-09-07T02:50:33;19.70;46.10
4097;DHT22;2062;50.694;7.246;2023-09-07T02:53:00;19.60;45.30
4097;DHT22;2062;50.694;7.246;2023-09-07T02:55:28;19.60;45.40
4097;DHT22;2062;50.694;7.246;2023-09-07T02:57:56;19.60;44.80
4097;DHT22;2062;50.694;7.246;2023-09-07T03:00:23;19.70;44.70
4097;DHT22;2062;50.694;7.246;2023-09-07T03:02:50;19.70;44.80
4097;DHT22;2062;50.694;7.246;2023-09-07T03:05:18;19.70;44.60
4097;DHT22;2062;50.694;7.246;2023-09-07T03:07:45;19.80;44.60
4097;DHT22;2062;50.694;7.246;2023-09-07T03:10:13;19.80;44.70
4097;DHT22;2062;50.694;7.246;2023-09-07T03:12:39;19.80;44.80
4097;DHT22;2062;50.694;7.246;2023-09-07T03:15:07;19.80;44.70
4097;DHT22;2062;50.694;7.246;2023-09-07T03:17:34;19.80;44.50
4097;DHT22;2062;50.694;7.246;2023-09-07T03:20:01;19.80;44.50
4097;DHT22;2062;50.694;7.246;2023-09-07T03:22:32;19.90;44.70
4097;DHT22;2062;50.694;7.246;2023-09-07T03:24:59;19.90;44.70
4097;DHT22;2062;50.694;7.246;2023-09-07T03:27:26;19.90;44.50
4097;DHT22;2062;50.694;7.246;2023-09-07T03:29:52;19.90;44.40
4097;DHT22;2062;50.694;7.246;2023-09-07T03:32:19;19.90;44.40
4097;DHT22;2062;50.694;7.246;2023-09-07T03:34:46;19.90;44.60
4097;DHT22;2062;50.694;7.246;2023-09-07T03:37:13;19.90;44.50
4097;DHT22;2062;50.694;7.246;2023-09-07T03:39:41;19.90;44.60
4097;DHT22;2062;50.694;7.246;2023-09-07T03:42:07;19.90;44.50
4097;DHT22;2062;50.694;7.246;2023-09-07T03:44:34;19.90;44.70
4097;DHT22;2062;50.694;7.246;2023-09-07T03:47:01;19.90;44.50
4097;DHT22;2062;50.694;7.246;2023-09-07T03:49:29;19.80;44.50
4097;DHT22;2062;50.694;7.246;2023-09-07T03:51:55;19.90;44.60
4097;DHT22;2062;50.694;7.246;2023-09-07T03:54:22;19.90;44.60
4097;DHT22;2062;50.694;7.246;2023-09-07T03:56:50;19.90;44.40
4097;DHT22;2062;50.694;7.246;2023-09-07T03:59:17;19.90;44.40
4097;DHT22;2062;50.694;7.246;2023-09-07T04:01:44;19.80;44.40
4097;DHT22;2062;50.694;7.246;2023-09-07T04:04:11;19.80;44.40
4097;DHT22;2062;50.694;7.246;2023-09-07T04:06:37;19.80;44.40
4097;DHT22;2062;50.694;7.246;2023-09-07T04:09:04;19.80;44.40
4097;DHT22;2062;50.694;7.246;2023-09-07T04:11:31;19.80;44.50
4097;DHT22;2062;50.694;7.246;2023-09-07T04:13:59;19.80;44.40
4097;DHT22;2062;50.694;7.246;2023-09-07T04:16:26;19.80;44.50
4097;DHT22;2062;50.694;7.246;2023-09-07T04:18:53;19.90;44.60
4097;DHT22;2062;50.694;7.246;2023-09-07T04:21:19;19.80;45.10
4097;DHT22;2062;50.694;7.246;2023-09-07T04:23:46;19.80;44.40
4097;DHT22;2062;50.694;7.246;2023-09-07T04:26:13;19.80;44.50
4097;DHT22;2062;50.694;7.246;2023-09-07T04:28:40;19.80;44.40
4097;DHT22;2062;50.694;7.246;2023-09-07T04:31:09;19.90;44.60
4097;DHT22;2062;50.694;7.246;2023-09-07T04:33:36;19.80;44.60
4097;DHT22;2062;50.694;7.246;2023-09-07T04:36:09;19.80;44.50
4097;DHT22;2062;50.694;7.246;2023-09-07T04:38:36;19.60;44.50
4097;DHT22;2062;50.694;7.246;2023-09-07T04:41:06;19.70;45.20
4097;DHT22;2062;50.694;7.246;2023-09-07T04:43:33;19.70;44.50
4097;DHT22;2062;50.694;7.246;2023-09-07T04:46:00;19.70;44.60
4097;DHT22;2062;50.694;7.246;2023-09-07T04:48:28;19.70;44.80
4097;DHT22;2062;50.694;7.246;2023-09-07T04:50:58;19.70;44.70
4097;DHT22;2062;50.694;7.246;2023-09-07T04:53:24;19.60;44.70
4097;DHT22;2062;50.694;7.246;2023-09-07T04:55:51;19.60;44.60
4097;DHT22;2062;50.694;7.246;2023-09-07T04:58:18;19.60;44.60
4097;DHT22;2062;50.694;7.246;2023-09-07T05:00:45;19.60;45.00
4097;DHT22;2062;50.694;7.246;2023-09-07T05:03:12;19.60;44.70
4097;DHT22;2062;50.694;7.246;2023-09-07T05:05:41;19.60;45.10
4097;DHT22;2062;50.694;7.246;2023-09-07T05:08:09;19.50;45.10
4097;DHT22;2062;50.694;7.246;2023-09-07T05:10:36;19.50;44.90
4097;DHT22;2062;50.694;7.246;2023-09-07T05:13:03;19.50;44.90
4097;DHT22;2062;50.694;7.246;2023-09-07T05:15:30;19.50;45.00
4097;DHT22;2062;50.694;7.246;2023-09-07T05:17:57;19.40;44.90
4097;DHT22;2062;50.694;7.246;2023-09-07T05:20:24;19.40;45.00
4097;DHT22;2062;50.694;7.246;2023-09-07T05:22:52;19.40;44.90
4097;DHT22;2062;50.694;7.246;2023-09-07T05:25:22;19.40;44.90
4097;DHT22;2062;50.694;7.246;2023-09-07T05:27:48;19.40;45.00
4097;DHT22;2062;50.694;7.246;2023-09-07T05:30:15;19.40;45.00
4097;DHT22;2062;50.694;7.246;2023-09-07T05:32:42;19.40;45.30
4097;DHT22;2062;50.694;7.246;2023-09-07T05:35:09;19.40;45.30
4097;DHT22;2062;50.694;7.246;2023-09-07T05:37:37;19.40;45.20
4097;DHT22;2062;50.694;7.246;2023-09-07T05:40:07;19.40;45.20
4097;DHT22;2062;50.694;7.246;2023-09-07T05:42:34;19.40;45.20
4097;DHT22;2062;50.694;7.246;2023-09-07T05:45:01;19.40;45.20
4097;DHT22;2062;50.694;7.246;2023-09-07T05:47:29;19.50;45.40
4097;DHT22;2062;50.694;7.246;2023-09-07T05:49:56;19.50;45.30
4097;DHT22;2062;50.694;7.246;2023-09-07T05:52:23;19.50;45.50
4097;DHT22;2062;50.694;7.246;2023-09-07T05:54:49;19.50;45.50
4097;DHT22;2062;50.694;7.246;2023-09-07T05:57:18;19.50;45.50
4097;DHT22;2062;50.694;7.246;2023-09-07T05:59:44;19.50;45.60
4097;DHT22;2062;50.694;7.246;2023-09-07T06:02:11;19.50;45.70
4097;DHT22;2062;50.694;7.246;2023-09-07T06:04:38;19.50;45.60
4097;DHT22;2062;50.694;7.246;2023-09-07T06:07:05;19.50;45.80
4097;DHT22;2062;50.694;7.246;2023-09-07T06:09:32;19.60;45.80
4097;DHT22;2062;50.694;7.246;2023-09-07T06:11:58;19.60;45.80
4097;DHT22;2062;50.694;7.246;2023-09-07T06:14:26;19.60;45.80
4097;DHT22;2062;50.694;7.246;2023-09-07T06:16:53;19.60;45.90
4097;DHT22;2062;50.694;7.246;2023-09-07T06:19:20;19.60;46.00
4097;DHT22;2062;50.694;7.246;2023-09-07T06:21:47;19.60;45.90
4097;DHT22;2062;50.694;7.246;2023-09-07T06:24:14;19.70;46.10
4097;DHT22;2062;50.694;7.246;2023-09-07T06:26:42;19.70;46.10
4097;DHT22;2062;50.694;7.246;2023-09-07T06:29:10;19.70;46.40
4097;DHT22;2062;50.694;7.246;2023-09-07T06:31:38;19.70;46.10
4097;DHT22;2062;50.694;7.246;2023-09-07T06:34:04;19.80;46.30
4097;DHT22;2062;50.694;7.246;2023-09-07T06:36:31;19.80;46.30
4097;DHT22;2062;50.694;7.246;2023-09-07T06:38:58;20.00;46.40
4097;DHT22;2062;50.694;7.246;2023-09-07T06:41:25;20.00;46.30
4097;DHT22;2062;50.694;7.246;2023-09-07T06:43:52;20.20;46.50
4097;DHT22;2062;50.694;7.246;2023-09-07T06:46:18;20.50;46.60
4097;DHT22;2062;50.694;7.246;2023-09-07T06:48:47;20.50;46.40
4097;DHT22;2062;50.694;7.246;2023-09-07T06:51:14;20.70;46.50
4097;DHT22;2062;50.694;7.246;2023-09-07T06:53:41;20.90;46.60
4097;DHT22;2062;50.694;7.246;2023-09-07T06:56:08;21.10;46.70
4097;DHT22;2062;50.694;7.246;2023-09-07T06:58:35;21.30;46.90
4097;DHT22;2062;50.694;7.246;2023-09-07T07:01:02;21.60;46.70
4097;DHT22;2062;50.694;7.246;2023-09-07T07:03:30;21.80;46.80
4097;DHT22;2062;50.694;7.246;2023-09-07T07:05:58;22.00;46.70
4097;DHT22;2062;50.694;7.246;2023-09-07T07:08:25;22.30;46.70
4097;DHT22;2062;50.694;7.246;2023-09-07T07:10:52;22.50;46.60
4097;DHT22;2062;50.694;7.246;2023-09-07T07:13:19;22.80;46.50
4097;DHT22;2062;50.694;7.246;2023-09-07T07:15:46;23.00;46.30
4097;DHT22;2062;50.694;7.246;2023-09-07T07:18:12;23.20;46.30
4097;DHT22;2062;50.694;7.246;2023-09-07T07:20:41;23.50;46.40
4097;DHT22;2062;50.694;7.246;2023-09-07T07:23:09;23.70;46.20
4097;DHT22;2062;50.694;7.246;2023-09-07T07:25:36;23.90;45.90
4097;DHT22;2062;50.694;7.246;2023-09-07T07:28:03;24.20;45.70
4097;DHT22;2062;50.694;7.246;2023-09-07T07:30:31;24.40;45.40
4097;DHT22;2062;50.694;7.246;2023-09-07T07:32:57;24.70;45.10
4097;DHT22;2062;50.694;7.246;2023-09-07T07:35:24;24.90;44.80
4097;DHT22;2062;50.694;7.246;2023-09-07T07:37:51;25.10;43.80
4097;DHT22;2062;50.694;7.246;2023-09-07T07:40:19;25.30;43.30
4097;DHT22;2062;50.694;7.246;2023-09-07T07:42:47;25.50;43.90
4097;DHT22;2062;50.694;7.246;2023-09-07T07:45:14;25.70;43.00
4097;DHT22;2062;50.694;7.246;2023-09-07T07:47:45;25.90;42.20
4097;DHT22;2062;50.694;7.246;2023-09-07T07:50:12;26.10;42.20
4097;DHT22;2062;50.694;7.246;2023-09-07T07:52:38;26.30;42.20
4097;DHT22;2062;50.694;7.246;2023-09-07T07:55:06;26.50;41.40
4097;DHT22;2062;50.694;7.246;2023-09-07T07:57:34;26.70;41.20
4097;DHT22;2062;50.694;7.246;2023-09-07T08:00:02;26.80;40.80
4097;DHT22;2062;50.694;7.246;2023-09-07T08:02:30;27.00;40.60
4097;DHT22;2062;50.694;7.246;2023-09-07T08:04:57;27.20;40.90
4097;DHT22;2062;50.694;7.246;2023-09-07T08:07:24;27.30;41.00
4097;DHT22;2062;50.694;7.246;2023-09-07T08:09:52;27.50;40.30
4097;DHT22;2062;50.694;7.246;2023-09-07T08:12:19;27.60;40.70
4097;DHT22;2062;50.694;7.246;2023-09-07T08:14:47;27.80;40.60
4097;DHT22;2062;50.694;7.246;2023-09-07T08:17:14;28.00;41.40
4097;DHT22;2062;50.694;7.246;2023-09-07T08:19:40;28.10;40.70
4097;DHT22;2062;50.694;7.246;2023-09-07T08:22:09;28.30;40.80
4097;DHT22;2062;50.694;7.246;2023-09-07T08:24:35;28.50;39.90
4097;DHT22;2062;50.694;7.246;2023-09-07T08:27:03;28.70;39.00
4097;DHT22;2062;50.694;7.246;2023-09-07T08:29:30;28.80;39.20
4097;DHT22;2062;50.694;7.246;2023-09-07T08:31:59;29.00;39.70
4097;DHT22;2062;50.694;7.246;2023-09-07T08:34:27;29.20;39.60
4097;DHT22;2062;50.694;7.246;2023-09-07T08:36:54;29.30;38.60
4097;DHT22;2062;50.694;7.246;2023-09-07T08:39:24;29.50;38.60
4097;DHT22;2062;50.694;7.246;2023-09-07T08:41:51;29.70;39.00
4097;DHT22;2062;50.694;7.246;2023-09-07T08:44:19;29.80;38.70
4097;DHT22;2062;50.694;7.246;2023-09-07T08:46:49;30.00;38.20
4097;DHT22;2062;50.694;7.246;2023-09-07T08:49:17;30.10;38.70
4097;DHT22;2062;50.694;7.246;2023-09-07T08:51:44;30.30;38.00
4097;DHT22;2062;50.694;7.246;2023-09-07T08:54:12;30.40;37.80
4097;DHT22;2062;50.694;7.246;2023-09-07T08:56:39;30.50;37.30
4097;DHT22;2062;50.694;7.246;2023-09-07T08:59:06;30.60;36.80
4097;DHT22;2062;50.694;7.246;2023-09-07T09:01:33;30.80;37.00
4097;DHT22;2062;50.694;7.246;2023-09-07T09:04:00;30.90;37.30
4097;DHT22;2062;50.694;7.246;2023-09-07T09:06:28;31.00;37.10
4097;DHT22;2062;50.694;7.246;2023-09-07T09:08:56;31.10;36.70
4097;DHT22;2062;50.694;7.246;2023-09-07T09:11:24;31.20;36.50
4097;DHT22;2062;50.694;7.246;2023-09-07T09:13:53;31.40;36.60
4097;DHT22;2062;50.694;7.246;2023-09-07T09:16:20;31.50;36.50
4097;DHT22;2062;50.694;7.246;2023-09-07T09:18:48;31.60;36.20
4097;DHT22;2062;50.694;7.246;2023-09-07T09:21:17;31.70;36.40
4097;DHT22;2062;50.694;7.246;2023-09-07T09:23:48;31.80;35.70
4097;DHT22;2062;50.694;7.246;2023-09-07T09:26:15;31.90;35.20
4097;DHT22;2062;50.694;7.246;2023-09-07T09:28:42;32.00;35.50
4097;DHT22;2062;50.694;7.246;2023-09-07T09:31:11;32.00;35.30
4097;DHT22;2062;50.694;7.246;2023-09-07T09:33:39;32.20;34.80
4097;DHT22;2062;50.694;7.246;2023-09-07T09:36:06;32.20;34.60
4097;DHT22;2062;50.694;7.246;2023-09-07T09:38:33;32.40;34.20
4097;DHT22;2062;50.694;7.246;2023-09-07T09:41:02;32.40;34.20
4097;DHT22;2062;50.694;7.246;2023-09-07T09:43:29;32.50;34.50
4097;DHT22;2062;50.694;7.246;2023-09-07T09:45:56;32.60;34.50
4097;DHT22;2062;50.694;7.246;2023-09-07T09:48:23;32.80;34.60
4097;DHT22;2062;50.694;7.246;2023-09-07T09:50:51;32.80;34.60
4097;DHT22;2062;50.694;7.246;2023-09-07T09:53:18;33.00;35.00
4097;DHT22;2062;50.694;7.246;2023-09-07T09:55:46;33.10;34.40
4097;DHT22;2062;50.694;7.246;2023-09-07T09:58:14;33.20;34.70
4097;DHT22;2062;50.694;7.246;2023-09-07T10:00:42;33.30;34.00
4097;DHT22;2062;50.694;7.246;2023-09-07T10:03:13;33.30;34.40
4097;DHT22;2062;50.694;7.246;2023-09-07T10:05:44;33.40;34.00
4097;DHT22;2062;50.694;7.246;2023-09-07T10:08:13;33.60;33.50
4097;DHT22;2062;50.694;7.246;2023-09-07T10:10:41;33.60;33.40
4097;DHT22;2062;50.694;7.246;2023-09-07T10:13:08;33.70;33.10
4097;DHT22;2062;50.694;7.246;2023-09-07T10:15:37;33.70;32.70
4097;DHT22;2062;50.694;7.246;2023-09-07T10:18:10;33.70;33.10
4097;DHT22;2062;50.694;7.246;2023-09-07T10:20:51;33.80;32.90
4097;DHT22;2062;50.694;7.246;2023-09-07T10:23:18;33.80;33.10
4097;DHT22;2062;50.694;7.246;2023-09-07T10:25:48;33.90;33.20
4097;DHT22;2062;50.694;7.246;2023-09-07T10:28:20;34.00;33.60
4097;DHT22;2062;50.694;7.246;2023-09-07T10:31:00;34.00;33.40
4097;DHT22;2062;50.694;7.246;2023-09-07T10:33:29;34.10;33.30
4097;DHT22;2062;50.694;7.246;2023-09-07T10:35:55;34.10;32.80
4097;DHT22;2062;50.694;7.246;2023-09-07T10:38:23;34.20;32.80
4097;DHT22;2062;50.694;7.246;2023-09-07T10:40:54;34.20;32.90
4097;DHT22;2062;50.694;7.246;2023-09-07T10:43:23;34.30;32.50
4097;DHT22;2062;50.694;7.246;2023-09-07T10:45:49;34.30;32.00
4097;DHT22;2062;50.694;7.246;2023-09-07T10:48:18;34.30;31.50
4097;DHT22;2062;50.694;7.246;2023-09-07T10:50:45;34.30;31.40
4097;DHT22;2062;50.694;7.246;2023-09-07T10:53:13;34.30;30.60
4097;DHT22;2062;50.694;7.246;2023-09-07T10:55:40;34.30;30.80
4097;DHT22;2062;50.694;7.246;2023-09-07T10:58:09;34.30;30.90
4097;DHT22;2062;50.694;7.246;2023-09-07T11:00:36;34.30;30.00
4097;DHT22;2062;50.694;7.246;2023-09-07T11:03:09;34.30;30.60
4097;DHT22;2062;50.694;7.246;2023-09-07T11:05:38;34.30;31.50
4097;DHT22;2062;50.694;7.246;2023-09-07T11:08:06;34.30;30.40
4097;DHT22;2062;50.694;7.246;2023-09-07T11:10:34;34.20;29.90
4097;DHT22;2062;50.694;7.246;2023-09-07T11:13:03;34.10;29.80
4097;DHT22;2062;50.694;7.246;2023-09-07T11:15:30;34.10;30.30
4097;DHT22;2062;50.694;7.246;2023-09-07T11:17:57;34.10;30.00
4097;DHT22;2062;50.694;7.246;2023-09-07T11:20:24;34.10;29.40
4097;DHT22;2062;50.694;7.246;2023-09-07T11:22:53;34.10;30.00
4097;DHT22;2062;50.694;7.246;2023-09-07T11:25:20;34.10;29.90
4097;DHT22;2062;50.694;7.246;2023-09-07T11:27:48;34.10;29.40
4097;DHT22;2062;50.694;7.246;2023-09-07T11:30:15;34.10;29.60
4097;DHT22;2062;50.694;7.246;2023-09-07T11:32:41;34.10;29.50
4097;DHT22;2062;50.694;7.246;2023-09-07T11:35:09;34.10;28.80
4097;DHT22;2062;50.694;7.246;2023-09-07T11:37:36;34.00;28.00
4097;DHT22;2062;50.694;7.246;2023-09-07T11:40:05;34.00;28.70
4097;DHT22;2062;50.694;7.246;2023-09-07T11:42:37;34.00;29.10
4097;DHT22;2062;50.694;7.246;2023-09-07T11:45:06;34.00;28.30
4097;DHT22;2062;50.694;7.246;2023-09-07T11:47:34;34.00;29.20
4097;DHT22;2062;50.694;7.246;2023-09-07T11:50:02;34.00;28.40
4097;DHT22;2062;50.694;7.246;2023-09-07T11:52:29;33.90;27.70
4097;DHT22;2062;50.694;7.246;2023-09-07T11:54:55;33.90;27.90
4097;DHT22;2062;50.694;7.246;2023-09-07T11:57:23;33.90;28.40
4097;DHT22;2062;50.694;7.246;2023-09-07T11:59:50;33.90;28.20
4097;DHT22;2062;50.694;7.246;2023-09-07T12:02:17;33.90;28.70
4097;DHT22;2062;50.694;7.246;2023-09-07T12:04:46;33.90;28.30
4097;DHT22;2062;50.694;7.246;2023-09-07T12:07:13;34.00;28.20
4097;DHT22;2062;50.694;7.246;2023-09-07T12:09:41;34.00;28.80
4097;DHT22;2062;50.694;7.246;2023-09-07T12:12:07;34.00;29.00
4097;DHT22;2062;50.694;7.246;2023-09-07T12:14:37;34.10;29.60
4097;DHT22;2062;50.694;7.246;2023-09-07T12:17:04;34.10;28.70
4097;DHT22;2062;50.694;7.246;2023-09-07T12:19:31;34.10;28.30
4097;DHT22;2062;50.694;7.246;2023-09-07T12:21:58;34.20;28.40
4097;DHT22;2062;50.694;7.246;2023-09-07T12:24:25;34.30;28.30
4097;DHT22;2062;50.694;7.246;2023-09-07T12:26:52;34.30;27.80
4097;DHT22;2062;50.694;7.246;2023-09-07T12:29:19;34.30;28.00
4097;DHT22;2062;50.694;7.246;2023-09-07T12:31:47;34.30;28.20
4097;DHT22;2062;50.694;7.246;2023-09-07T12:34:14;34.30;28.30
4097;DHT22;2062;50.694;7.246;2023-09-07T12:36:41;34.40;28.00
4097;DHT22;2062;50.694;7.246;2023-09-07T12:39:08;34.40;28.90
4097;DHT22;2062;50.694;7.246;2023-09-07T12:41:38;34.40;27.70
4097;DHT22;2062;50.694;7.246;2023-09-07T12:44:04;34.50;27.90
4097;DHT22;2062;50.694;7.246;2023-09-07T12:46:31;34.50;28.30
4097;DHT22;2062;50.694;7.246;2023-09-07T12:49:00;34.60;28.10
4097;DHT22;2062;50.694;7.246;2023-09-07T12:51:26;34.60;28.10
4097;DHT22;2062;50.694;7.246;2023-09-07T12:53:53;34.60;28.30
4097;DHT22;2062;50.694;7.246;2023-09-07T12:56:20;34.70;28.20
4097;DHT22;2062;50.694;7.246;2023-09-07T12:58:47;34.70;28.00
4097;DHT22;2062;50.694;7.246;2023-09-07T13:01:14;34.80;27.80
4097;DHT22;2062;50.694;7.246;2023-09-07T13:03:42;34.80;27.50
4097;DHT22;2062;50.694;7.246;2023-09-07T13:06:10;34.80;27.30
4097;DHT22;2062;50.694;7.246;2023-09-07T13:08:38;34.90;27.10
4097;DHT22;2062;50.694;7.246;2023-09-07T13:11:04;34.90;27.10
4097;DHT22;2062;50.694;7.246;2023-09-07T13:13:31;34.90;27.30
4097;DHT22;2062;50.694;7.246;2023-09-07T13:15:58;34.90;27.00
4097;DHT22;2062;50.694;7.246;2023-09-07T13:18:26;34.90;27.30
4097;DHT22;2062;50.694;7.246;2023-09-07T13:20:53;34.90;27.40
4097;DHT22;2062;50.694;7.246;2023-09-07T13:23:26;35.00;28.00
4097;DHT22;2062;50.694;7.246;2023-09-07T13:25:53;35.00;27.80
4097;DHT22;2062;50.694;7.246;2023-09-07T13:28:20;35.10;27.70
4097;DHT22;2062;50.694;7.246;2023-09-07T13:30:47;35.10;27.40
4097;DHT22;2062;50.694;7.246;2023-09-07T13:33:14;35.10;27.60
4097;DHT22;2062;50.694;7.246;2023-09-07T13:35:41;35.10;27.20
4097;DHT22;2062;50.694;7.246;2023-09-07T13:38:09;35.20;26.90
4097;DHT22;2062;50.694;7.246;2023-09-07T13:40:37;35.20;26.80
4097;DHT22;2062;50.694;7.246;2023-09-07T13:43:04;35.20;27.60
4097;DHT22;2062;50.694;7.246;2023-09-07T13:45:31;35.20;26.90
4097;DHT22;2062;50.694;7.246;2023-09-07T13:47:58;35.10;27.10
4097;DHT22;2062;50.694;7.246;2023-09-07T13:50:26;35.10;26.90
4097;DHT22;2062;50.694;7.246;2023-09-07T13:52:54;35.10;26.10
4097;DHT22;2062;50.694;7.246;2023-09-07T13:55:21;35.10;27.40
4097;DHT22;2062;50.694;7.246;2023-09-07T13:57:50;35.00;26.20
4097;DHT22;2062;50.694;7.246;2023-09-07T14:00:17;34.90;25.80
4097;DHT22;2062;50.694;7.246;2023-09-07T14:02:43;34.90;25.60
4097;DHT22;2062;50.694;7.246;2023-09-07T14:05:10;34.80;25.80
4097;DHT22;2062;50.694;7.246;2023-09-07T14:07:37;34.80;25.80
4097;DHT22;2062;50.694;7.246;2023-09-07T14:10:05;34.70;26.10
4097;DHT22;2062;50.694;7.246;2023-09-07T14:12:32;34.70;26.60
4097;DHT22;2062;50.694;7.246;2023-09-07T14:15:00;34.60;26.60
4097;DHT22;2062;50.694;7.246;2023-09-07T14:17:27;34.60;26.70
4097;DHT22;2062;50.694;7.246;2023-09-07T14:19:53;34.60;26.70
4097;DHT22;2062;50.694;7.246;2023-09-07T14:22:20;34.50;26.40
4097;DHT22;2062;50.694;7.246;2023-09-07T14:24:47;34.50;26.30
4097;DHT22;2062;50.694;7.246;2023-09-07T14:27:14;34.50;26.10
4097;DHT22;2062;50.694;7.246;2023-09-07T14:29:41;34.50;26.40
4097;DHT22;2062;50.694;7.246;2023-09-07T14:32:09;34.50;25.90
4097;DHT22;2062;50.694;7.246;2023-09-07T14:34:36;34.50;26.00
4097;DHT22;2062;50.694;7.246;2023-09-07T14:37:03;34.50;25.70
4097;DHT22;2062;50.694;7.246;2023-09-07T14:39:30;34.40;26.50
4097;DHT22;2062;50.694;7.246;2023-09-07T14:41:57;34.40;26.50
4097;DHT22;2062;50.694;7.246;2023-09-07T14:44:24;34.50;26.40
4097;DHT22;2062;50.694;7.246;2023-09-07T14:46:51;34.50;25.80
4097;DHT22;2062;50.694;7.246;2023-09-07T14:49:19;34.40;26.00
4097;DHT22;2062;50.694;7.246;2023-09-07T14:51:47;34.40;25.80
4097;DHT22;2062;50.694;7.246;2023-09-07T14:54:13;34.40;25.40
4097;DHT22;2062;50.694;7.246;2023-09-07T14:56:40;34.40;25.70
4097;DHT22;2062;50.694;7.246;2023-09-07T14:59:07;34.40;25.70
4097;DHT22;2062;50.694;7.246;2023-09-07T15:01:34;34.30;25.80
4097;DHT22;2062;50.694;7.246;2023-09-07T15:04:01;34.40;26.00
4097;DHT22;2062;50.694;7.246;2023-09-07T15:06:29;34.30;25.80
4097;DHT22;2062;50.694;7.246;2023-09-07T15:08:57;34.30;25.40
4097;DHT22;2062;50.694;7.246;2023-09-07T15:11:24;34.30;25.50
4097;DHT22;2062;50.694;7.246;2023-09-07T15:13:51;34.30;25.20
4097;DHT22;2062;50.694;7.246;2023-09-07T15:16:20;34.30;25.40
4097;DHT22;2062;50.694;7.246;2023-09-07T15:18:47;34.20;25.10
4097;DHT22;2062;50.694;7.246;2023-09-07T15:21:14;34.20;25.10
4097;DHT22;2062;50.694;7.246;2023-09-07T15:23:42;34.10;25.30
4097;DHT22;2062;50.694;7.246;2023-09-07T15:26:09;34.10;25.10
4097;DHT22;2062;50.694;7.246;2023-09-07T15:28:37;34.00;25.30
4097;DHT22;2062;50.694;7.246;2023-09-07T15:31:05;34.00;25.30
4097;DHT22;2062;50.694;7.246;2023-09-07T15:33:32;33.90;24.90
4097;DHT22;2062;50.694;7.246;2023-09-07T15:36:00;33.90;24.80
4097;DHT22;2062;50.694;7.246;2023-09-07T15:38:27;33.90;24.60
4097;DHT22;2062;50.694;7.246;2023-09-07T15:40:56;33.80;24.70
4097;DHT22;2062;50.694;7.246;2023-09-07T15:43:24;33.80;24.80
4097;DHT22;2062;50.694;7.246;2023-09-07T15:45:52;33.70;24.90
4097;DHT22;2062;50.694;7.246;2023-09-07T15:48:19;33.70;24.70
4097;DHT22;2062;50.694;7.246;2023-09-07T15:50:46;33.60;24.90
4097;DHT22;2062;50.694;7.246;2023-09-07T15:53:13;33.60;25.00
4097;DHT22;2062;50.694;7.246;2023-09-07T15:55:39;33.50;25.10
4097;DHT22;2062;50.694;7.246;2023-09-07T15:58:09;33.50;25.90
4097;DHT22;2062;50.694;7.246;2023-09-07T16:00:35;33.40;25.10
4097;DHT22;2062;50.694;7.246;2023-09-07T16:03:04;33.40;25.20
4097;DHT22;2062;50.694;7.246;2023-09-07T16:05:30;33.30;25.40
4097;DHT22;2062;50.694;7.246;2023-09-07T16:07:57;33.30;25.30
4097;DHT22;2062;50.694;7.246;2023-09-07T16:10:24;33.20;25.40